sensor_id;sensor_type;location;lat;lon;timestamp;pressure;altitude;pressure_sealevel;temperature;humidity
7178;BME280;3630;42.146;24.756;2022-11-15T00:00:45;100215.06;;;8.95;88.49
7178;BME280;3630;42.146;24.756;2022-11-15T00:03:13;100210.94;;;9.00;88.22
7178;BME280;3630;42.146;24.756;2022-11-15T00:05:40;100217.06;;;9.03;88.06
7178;BME280;3630;42.146;24.756;2022-11-15T00:08:07;100212.69;;;9.01;87.69
7178;BME280;3630;42.146;24.756;2022-11-15T00:10:34;100212.81;;;9.04;87.65
7178;BME280;3630;42.146;24.756;2022-11-15T00:13:04;100209.09;;;8.96;87.84
7178;BME280;3630;42.146;24.756;2022-11-15T00:15:31;100211.84;;;9.00;87.99
7178;BME280;3630;42.146;24.756;2022-11-15T00:18:02;100213.50;;;9.00;87.55
7178;BME280;3630;42.146;24.756;2022-11-15T00:20:28;100207.41;;;8.96;87.89
7178;BME280;3630;42.146;24.756;2022-11-15T00:22:55;100197.13;;;8.95;87.93
7178;BME280;3630;42.146;24.756;2022-11-15T00:25:22;100205.72;;;8.97;87.48
7178;BME280;3630;42.146;24.756;2022-11-15T00:27:49;100218.59;;;8.98;87.67
7178;BME280;3630;42.146;24.756;2022-11-15T00:30:17;100206.50;;;8.94;87.60
7178;BME280;3630;42.146;24.756;2022-11-15T00:32:43;100206.63;;;8.99;87.65
7178;BME280;3630;42.146;24.756;2022-11-15T00:35:12;100208.50;;;9.03;87.54
7178;BME280;3630;42.146;24.756;2022-11-15T00:37:39;100205.13;;;9.04;87.20
7178;BME280;3630;42.146;24.756;2022-11-15T00:40:07;100203.41;;;9.04;86.86
7178;BME280;3630;42.146;24.756;2022-11-15T00:42:34;100211.06;;;9.03;86.44
7178;BME280;3630;42.146;24.756;2022-11-15T00:45:01;100201.47;;;8.97;86.98
7178;BME280;3630;42.146;24.756;2022-11-15T00:47:28;100206.75;;;9.02;86.93
7178;BME280;3630;42.146;24.756;2022-11-15T00:49:55;100191.78;;;8.88;86.97
7178;BME280;3630;42.146;24.756;2022-11-15T00:52:23;100184.59;;;8.78;87.03
7178;BME280;3630;42.146;24.756;2022-11-15T00:54:50;100191.75;;;8.87;87.77
7178;BME280;3630;42.146;24.756;2022-11-15T00:57:17;100187.63;;;8.92;87.56
7178;BME280;3630;42.146;24.756;2022-11-15T00:59:44;100185.44;;;9.03;87.31
7178;BME280;3630;42.146;24.756;2022-11-15T01:02:10;100194.09;;;9.06;87.21
7178;BME280;3630;42.146;24.756;2022-11-15T01:04:37;100194.09;;;9.06;87.01
7178;BME280;3630;42.146;24.756;2022-11-15T01:07:04;100191.47;;;9.05;87.13
7178;BME280;3630;42.146;24.756;2022-11-15T01:09:32;100192.34;;;9.05;87.39
7178;BME280;3630;42.146;24.756;2022-11-15T01:11:59;100184.69;;;9.07;87.13
7178;BME280;3630;42.146;24.756;2022-11-15T01:14:26;100186.44;;;9.08;87.38
7178;BME280;3630;42.146;24.756;2022-11-15T01:16:53;100179.56;;;9.07;87.77
7178;BME280;3630;42.146;24.756;2022-11-15T01:19:20;100181.31;;;9.08;87.58
7178;BME280;3630;42.146;24.756;2022-11-15T01:21:48;100181.41;;;9.11;87.70
7178;BME280;3630;42.146;24.756;2022-11-15T01:24:15;100164.97;;;9.04;87.58
7178;BME280;3630;42.146;24.756;2022-11-15T01:26:44;100180.50;;;9.09;87.61
7178;BME280;3630;42.146;24.756;2022-11-15T01:29:11;100176.28;;;9.11;87.60
7178;BME280;3630;42.146;24.756;2022-11-15T01:31:37;100173.84;;;9.14;87.93
7178;BME280;3630;42.146;24.756;2022-11-15T01:34:04;100168.72;;;9.14;87.18
7178;BME280;3630;42.146;24.756;2022-11-15T01:36:31;100176.31;;;9.12;86.85
7178;BME280;3630;42.146;24.756;2022-11-15T01:38:58;100177.09;;;9.10;87.17
7178;BME280;3630;42.146;24.756;2022-11-15T01:41:27;100172.03;;;9.11;87.31
7178;BME280;3630;42.146;24.756;2022-11-15T01:43:57;100171.16;;;9.11;87.16
7178;BME280;3630;42.146;24.756;2022-11-15T01:46:28;100168.59;;;9.11;87.24
7178;BME280;3630;42.146;24.756;2022-11-15T01:48:58;100164.47;;;9.14;87.35
7178;BME280;3630;42.146;24.756;2022-11-15T01:51:30;100164.50;;;9.16;86.80
7178;BME280;3630;42.146;24.756;2022-11-15T01:54:00;100167.84;;;9.13;86.84
7178;BME280;3630;42.146;24.756;2022-11-15T01:56:30;100166.94;;;9.13;86.79
7178;BME280;3630;42.146;24.756;2022-11-15T01:59:03;100161.78;;;9.11;86.68
7178;BME280;3630;42.146;24.756;2022-11-15T02:01:31;100167.78;;;9.12;86.37
7178;BME280;3630;42.146;24.756;2022-11-15T02:04:02;100163.47;;;9.11;86.75
7178;BME280;3630;42.146;24.756;2022-11-15T02:06:31;100154.81;;;9.07;86.99
7178;BME280;3630;42.146;24.756;2022-11-15T02:08:59;100173.00;;;9.15;87.20
7178;BME280;3630;42.146;24.756;2022-11-15T02:11:46;100147.78;;;9.02;86.78
7178;BME280;3630;42.146;24.756;2022-11-15T02:14:16;100166.03;;;9.11;86.68
7178;BME280;3630;42.146;24.756;2022-11-15T02:16:52;100163.41;;;9.09;86.58
7178;BME280;3630;42.146;24.756;2022-11-15T02:19:40;100161.63;;;9.07;86.90
7178;BME280;3630;42.146;24.756;2022-11-15T02:22:22;100158.34;;;9.11;86.66
7178;BME280;3630;42.146;24.756;2022-11-15T02:25:14;100162.69;;;9.13;86.72
7178;BME280;3630;42.146;24.756;2022-11-15T02:27:59;100162.66;;;9.12;86.39
7178;BME280;3630;42.146;24.756;2022-11-15T02:30:37;100164.59;;;9.19;86.67
7178;BME280;3630;42.146;24.756;2022-11-15T02:33:14;100156.94;;;9.20;86.58
7178;BME280;3630;42.146;24.756;2022-11-15T02:35:57;100161.31;;;9.23;86.23
7178;BME280;3630;42.146;24.756;2022-11-15T02:38:31;100164.81;;;9.25;86.38
7178;BME280;3630;42.146;24.756;2022-11-15T02:41:03;100159.88;;;9.31;86.26
7178;BME280;3630;42.146;24.756;2022-11-15T02:43:37;100155.53;;;9.28;85.79
7178;BME280;3630;42.146;24.756;2022-11-15T02:46:31;100165.06;;;9.34;85.32
7178;BME280;3630;42.146;24.756;2022-11-15T02:49:17;100150.44;;;9.30;85.33
7178;BME280;3630;42.146;24.756;2022-11-15T02:51:46;100157.34;;;9.32;85.70
7178;BME280;3630;42.146;24.756;2022-11-15T02:54:19;100153.09;;;9.33;85.16
7178;BME280;3630;42.146;24.756;2022-11-15T02:56:47;100153.00;;;9.30;85.25
7178;BME280;3630;42.146;24.756;2022-11-15T03:02:31;100149.50;;;9.28;86.39
7178;BME280;3630;42.146;24.756;2022-11-15T03:05:04;100140.97;;;9.29;86.36
7178;BME280;3630;42.146;24.756;2022-11-15T03:07:42;100140.16;;;9.30;86.32
7178;BME280;3630;42.146;24.756;2022-11-15T03:10:16;100151.19;;;9.27;86.12
7178;BME280;3630;42.146;24.756;2022-11-15T03:12:48;100143.38;;;9.23;86.63
7178;BME280;3630;42.146;24.756;2022-11-15T03:15:21;100151.13;;;9.26;86.57
7178;BME280;3630;42.146;24.756;2022-11-15T03:17:55;100149.66;;;9.32;86.04
7178;BME280;3630;42.146;24.756;2022-11-15T03:20:26;100146.94;;;9.28;86.12
7178;BME280;3630;42.146;24.756;2022-11-15T03:22:56;100148.56;;;9.26;86.09
7178;BME280;3630;42.146;24.756;2022-11-15T03:25:25;100151.13;;;9.26;86.05
7178;BME280;3630;42.146;24.756;2022-11-15T03:27:55;100145.88;;;9.21;85.91
7178;BME280;3630;42.146;24.756;2022-11-15T03:30:24;100144.13;;;9.20;85.58
7178;BME280;3630;42.146;24.756;2022-11-15T03:32:54;100135.59;;;9.20;85.54
7178;BME280;3630;42.146;24.756;2022-11-15T03:35:24;100139.34;;;9.31;85.69
7178;BME280;3630;42.146;24.756;2022-11-15T03:37:55;100129.03;;;9.29;85.11
7178;BME280;3630;42.146;24.756;2022-11-15T03:40:27;100135.28;;;9.37;85.11
7178;BME280;3630;42.146;24.756;2022-11-15T03:43:01;100131.06;;;9.39;85.03
7178;BME280;3630;42.146;24.756;2022-11-15T03:45:35;100125.19;;;9.42;84.92
7178;BME280;3630;42.146;24.756;2022-11-15T03:48:09;100127.97;;;9.49;84.35
7178;BME280;3630;42.146;24.756;2022-11-15T03:50:38;100122.84;;;9.49;84.09
7178;BME280;3630;42.146;24.756;2022-11-15T03:53:05;100114.97;;;9.45;83.97
7178;BME280;3630;42.146;24.756;2022-11-15T03:55:32;100081.00;;;9.24;83.98
7178;BME280;3630;42.146;24.756;2022-11-15T03:58:00;100117.47;;;9.42;84.21
7178;BME280;3630;42.146;24.756;2022-11-15T04:00:28;100108.94;;;9.43;84.16
7178;BME280;3630;42.146;24.756;2022-11-15T04:02:55;100106.25;;;9.38;83.34
7178;BME280;3630;42.146;24.756;2022-11-15T04:05:23;100118.06;;;9.33;83.06
7178;BME280;3630;42.146;24.756;2022-11-15T04:07:50;100100.25;;;9.38;82.80
7178;BME280;3630;42.146;24.756;2022-11-15T04:10:17;100096.88;;;9.39;82.63
7178;BME280;3630;42.146;24.756;2022-11-15T04:12:45;100103.19;;;9.50;82.38
7178;BME280;3630;42.146;24.756;2022-11-15T04:15:14;100103.22;;;9.52;82.20
7178;BME280;3630;42.146;24.756;2022-11-15T04:17:43;100100.75;;;9.55;82.42
7178;BME280;3630;42.146;24.756;2022-11-15T04:20:12;100096.41;;;9.52;82.36
7178;BME280;3630;42.146;24.756;2022-11-15T04:22:59;100090.19;;;9.44;82.13
7178;BME280;3630;42.146;24.756;2022-11-15T04:25:44;100087.44;;;9.39;81.75
7178;BME280;3630;42.146;24.756;2022-11-15T04:28:11;100090.78;;;9.37;81.52
7178;BME280;3630;42.146;24.756;2022-11-15T04:30:38;100083.97;;;9.37;81.92
7178;BME280;3630;42.146;24.756;2022-11-15T04:33:05;100089.00;;;9.34;81.28
7178;BME280;3630;42.146;24.756;2022-11-15T04:35:32;100088.13;;;9.34;81.98
7178;BME280;3630;42.146;24.756;2022-11-15T04:38:02;100084.31;;;9.20;81.94
7178;BME280;3630;42.146;24.756;2022-11-15T04:40:27;100094.59;;;9.21;81.98
7178;BME280;3630;42.146;24.756;2022-11-15T04:42:54;100093.50;;;9.13;82.35
7178;BME280;3630;42.146;24.756;2022-11-15T04:45:21;100099.28;;;9.08;82.57
7178;BME280;3630;42.146;24.756;2022-11-15T04:47:48;100096.31;;;8.96;82.54
7178;BME280;3630;42.146;24.756;2022-11-15T04:50:16;100098.50;;;8.83;83.35
7178;BME280;3630;42.146;24.756;2022-11-15T04:52:49;100095.03;;;8.81;83.68
7178;BME280;3630;42.146;24.756;2022-11-15T04:55:17;100095.75;;;8.77;83.68
7178;BME280;3630;42.146;24.756;2022-11-15T04:57:44;100093.28;;;8.80;83.32
7178;BME280;3630;42.146;24.756;2022-11-15T05:00:13;100091.63;;;8.82;83.32
7178;BME280;3630;42.146;24.756;2022-11-15T05:02:40;100090.75;;;8.82;83.74
7178;BME280;3630;42.146;24.756;2022-11-15T05:05:24;100087.38;;;8.83;83.81
7178;BME280;3630;42.146;24.756;2022-11-15T05:07:51;100087.38;;;8.83;84.00
7178;BME280;3630;42.146;24.756;2022-11-15T05:10:19;100093.38;;;8.83;83.67
7178;BME280;3630;42.146;24.756;2022-11-15T05:12:46;100091.84;;;8.88;83.37
7178;BME280;3630;42.146;24.756;2022-11-15T05:15:13;100089.38;;;8.92;83.06
7178;BME280;3630;42.146;24.756;2022-11-15T05:17:40;100086.72;;;8.88;82.81
7178;BME280;3630;42.146;24.756;2022-11-15T05:20:08;100091.03;;;8.89;82.62
7178;BME280;3630;42.146;24.756;2022-11-15T05:22:35;100090.25;;;8.92;82.85
7178;BME280;3630;42.146;24.756;2022-11-15T05:25:02;100080.78;;;8.89;82.67
7178;BME280;3630;42.146;24.756;2022-11-15T05:27:30;100089.38;;;8.92;82.47
7178;BME280;3630;42.146;24.756;2022-11-15T05:29:57;100087.72;;;8.94;82.50
7178;BME280;3630;42.146;24.756;2022-11-15T05:32:24;100082.78;;;8.98;82.66
7178;BME280;3630;42.146;24.756;2022-11-15T05:34:51;100096.59;;;9.03;82.28
7178;BME280;3630;42.146;24.756;2022-11-15T05:37:18;100088.03;;;9.03;82.34
7178;BME280;3630;42.146;24.756;2022-11-15T05:39:45;100097.47;;;9.04;82.71
7178;BME280;3630;42.146;24.756;2022-11-15T05:42:13;100088.06;;;9.04;82.44
7178;BME280;3630;42.146;24.756;2022-11-15T05:44:44;100095.03;;;9.08;82.20
7178;BME280;3630;42.146;24.756;2022-11-15T05:47:15;100095.94;;;9.10;81.61
7178;BME280;3630;42.146;24.756;2022-11-15T05:49:44;100098.72;;;9.16;80.89
7178;BME280;3630;42.146;24.756;2022-11-15T05:52:14;100101.47;;;9.22;80.63
7178;BME280;3630;42.146;24.756;2022-11-15T05:54:43;100104.16;;;9.27;80.98
7178;BME280;3630;42.146;24.756;2022-11-15T05:57:10;100107.84;;;9.35;80.42
7178;BME280;3630;42.146;24.756;2022-11-15T05:59:37;100113.06;;;9.38;80.42
7178;BME280;3630;42.146;24.756;2022-11-15T06:02:07;100109.72;;;9.40;80.41
7178;BME280;3630;42.146;24.756;2022-11-15T06:04:34;100115.16;;;9.49;79.96
7178;BME280;3630;42.146;24.756;2022-11-15T06:07:01;100112.50;;;9.48;79.93
7178;BME280;3630;42.146;24.756;2022-11-15T06:09:28;100112.34;;;9.42;80.36
7178;BME280;3630;42.146;24.756;2022-11-15T06:11:54;100113.19;;;9.42;80.51
7178;BME280;3630;42.146;24.756;2022-11-15T06:14:21;100110.69;;;9.44;80.89
7178;BME280;3630;42.146;24.756;2022-11-15T06:16:48;100120.28;;;9.49;80.63
7178;BME280;3630;42.146;24.756;2022-11-15T06:19:16;100114.25;;;9.49;80.80
7178;BME280;3630;42.146;24.756;2022-11-15T06:21:43;100115.25;;;9.53;80.40
7178;BME280;3630;42.146;24.756;2022-11-15T06:24:10;100117.94;;;9.57;79.78
7178;BME280;3630;42.146;24.756;2022-11-15T06:26:36;100123.34;;;9.66;79.40
7178;BME280;3630;42.146;24.756;2022-11-15T06:29:03;100120.09;;;9.72;78.36
7178;BME280;3630;42.146;24.756;2022-11-15T06:31:31;100115.19;;;9.79;78.44
7178;BME280;3630;42.146;24.756;2022-11-15T06:33:58;100110.91;;;9.80;78.33
7178;BME280;3630;42.146;24.756;2022-11-15T06:36:26;100116.94;;;9.80;77.94
7178;BME280;3630;42.146;24.756;2022-11-15T06:38:53;100113.31;;;9.75;77.25
7178;BME280;3630;42.146;24.756;2022-11-15T06:41:19;100114.00;;;9.68;77.74
7178;BME280;3630;42.146;24.756;2022-11-15T06:43:46;100115.88;;;9.74;77.95
7178;BME280;3630;42.146;24.756;2022-11-15T06:46:13;100111.78;;;9.80;77.40
7178;BME280;3630;42.146;24.756;2022-11-15T06:48:40;100113.59;;;9.84;77.10
7178;BME280;3630;42.146;24.756;2022-11-15T06:51:07;100112.97;;;9.91;76.44
7178;BME280;3630;42.146;24.756;2022-11-15T06:53:35;100109.75;;;9.98;75.78
7178;BME280;3630;42.146;24.756;2022-11-15T06:56:03;100121.13;;;10.08;75.01
7178;BME280;3630;42.146;24.756;2022-11-15T06:58:30;100119.66;;;10.15;75.19
7178;BME280;3630;42.146;24.756;2022-11-15T07:01:00;100111.28;;;10.22;74.31
7178;BME280;3630;42.146;24.756;2022-11-15T07:03:27;100116.44;;;10.22;73.71
7178;BME280;3630;42.146;24.756;2022-11-15T07:05:55;100108.94;;;10.29;73.04
7178;BME280;3630;42.146;24.756;2022-11-15T07:08:23;100101.03;;;10.22;73.08
7178;BME280;3630;42.146;24.756;2022-11-15T07:10:51;100103.59;;;10.22;72.35
7178;BME280;3630;42.146;24.756;2022-11-15T07:13:18;100102.66;;;10.20;72.75
7178;BME280;3630;42.146;24.756;2022-11-15T07:15:45;100097.34;;;10.14;72.83
7178;BME280;3630;42.146;24.756;2022-11-15T07:18:12;100105.38;;;10.24;72.72
7178;BME280;3630;42.146;24.756;2022-11-15T07:20:39;100102.84;;;10.26;72.65
7178;BME280;3630;42.146;24.756;2022-11-15T07:23:06;100099.63;;;10.33;73.00
7178;BME280;3630;42.146;24.756;2022-11-15T07:25:33;100096.38;;;10.40;73.10
7178;BME280;3630;42.146;24.756;2022-11-15T07:28:02;100096.63;;;10.49;72.79
7178;BME280;3630;42.146;24.756;2022-11-15T07:30:29;100085.56;;;10.51;72.80
7178;BME280;3630;42.146;24.756;2022-11-15T07:33:01;100086.47;;;10.55;71.81
7178;BME280;3630;42.146;24.756;2022-11-15T07:35:28;100092.91;;;10.71;71.97
7178;BME280;3630;42.146;24.756;2022-11-15T07:37:57;100097.41;;;10.79;71.65
7178;BME280;3630;42.146;24.756;2022-11-15T07:40:25;100095.03;;;10.88;70.55
7178;BME280;3630;42.146;24.756;2022-11-15T07:42:52;100097.72;;;10.93;70.30
7178;BME280;3630;42.146;24.756;2022-11-15T07:45:26;100090.19;;;11.00;70.42
7178;BME280;3630;42.146;24.756;2022-11-15T07:47:53;100094.78;;;11.13;69.80
7178;BME280;3630;42.146;24.756;2022-11-15T07:50:21;100097.47;;;11.18;68.85
7178;BME280;3630;42.146;24.756;2022-11-15T07:52:53;100046.63;;;11.06;69.09
7178;BME280;3630;42.146;24.756;2022-11-15T07:55:20;100082.53;;;11.39;68.70
7178;BME280;3630;42.146;24.756;2022-11-15T07:57:47;100085.25;;;11.45;68.68
7178;BME280;3630;42.146;24.756;2022-11-15T08:00:15;100086.22;;;11.50;68.09
7178;BME280;3630;42.146;24.756;2022-11-15T08:02:43;100091.53;;;11.59;67.76
7178;BME280;3630;42.146;24.756;2022-11-15T08:05:10;100088.22;;;11.63;68.44
7178;BME280;3630;42.146;24.756;2022-11-15T08:07:37;100084.84;;;11.67;68.58
7178;BME280;3630;42.146;24.756;2022-11-15T08:10:06;100082.34;;;11.69;67.36
7178;BME280;3630;42.146;24.756;2022-11-15T08:12:33;100081.63;;;11.74;67.82
7178;BME280;3630;42.146;24.756;2022-11-15T08:15:00;100070.38;;;11.69;67.21
7178;BME280;3630;42.146;24.756;2022-11-15T08:17:27;100075.50;;;11.69;68.17
7178;BME280;3630;42.146;24.756;2022-11-15T08:19:58;100067.47;;;11.56;68.26
7178;BME280;3630;42.146;24.756;2022-11-15T08:22:25;100073.50;;;11.58;68.81
7178;BME280;3630;42.146;24.756;2022-11-15T08:24:52;100071.13;;;11.67;68.70
7178;BME280;3630;42.146;24.756;2022-11-15T08:27:19;100071.28;;;11.73;68.38
7178;BME280;3630;42.146;24.756;2022-11-15T08:29:47;100065.13;;;11.68;68.19
7178;BME280;3630;42.146;24.756;2022-11-15T08:32:15;100070.38;;;11.69;68.65
7178;BME280;3630;42.146;24.756;2022-11-15T08:34:43;100072.19;;;11.75;68.76
7178;BME280;3630;42.146;24.756;2022-11-15T08:37:11;100061.16;;;11.82;69.03
7178;BME280;3630;42.146;24.756;2022-11-15T08:39:38;100067.38;;;11.92;69.11
7178;BME280;3630;42.146;24.756;2022-11-15T08:42:04;100064.16;;;12.02;68.84
7178;BME280;3630;42.146;24.756;2022-11-15T08:44:31;100064.28;;;12.09;68.46
7178;BME280;3630;42.146;24.756;2022-11-15T08:46:58;100064.47;;;12.18;68.30
7178;BME280;3630;42.146;24.756;2022-11-15T08:49:25;100057.69;;;12.23;68.24
7178;BME280;3630;42.146;24.756;2022-11-15T08:51:51;100056.13;;;12.31;68.08
7178;BME280;3630;42.146;24.756;2022-11-15T08:54:20;100058.81;;;12.37;68.04
7178;BME280;3630;42.146;24.756;2022-11-15T08:56:46;100054.59;;;12.42;67.81
7178;BME280;3630;42.146;24.756;2022-11-15T08:59:14;100039.88;;;12.35;68.23
7178;BME280;3630;42.146;24.756;2022-11-15T09:01:40;100047.81;;;12.48;68.00
7178;BME280;3630;42.146;24.756;2022-11-15T09:04:07;100033.13;;;12.42;68.38
7178;BME280;3630;42.146;24.756;2022-11-15T09:06:34;100037.41;;;12.41;68.77
7178;BME280;3630;42.146;24.756;2022-11-15T09:09:02;100032.22;;;12.40;69.20
7178;BME280;3630;42.146;24.756;2022-11-15T09:11:31;100020.44;;;12.54;69.98
7178;BME280;3630;42.146;24.756;2022-11-15T09:13:58;100024.19;;;12.73;68.84
7178;BME280;3630;42.146;24.756;2022-11-15T09:16:24;100008.78;;;12.76;69.19
7178;BME280;3630;42.146;24.756;2022-11-15T09:18:52;100002.63;;;12.69;69.58
7178;BME280;3630;42.146;24.756;2022-11-15T09:21:19;99999.84;;;12.56;70.32
7178;BME280;3630;42.146;24.756;2022-11-15T09:23:46;99995.66;;;12.61;71.13
7178;BME280;3630;42.146;24.756;2022-11-15T09:26:13;99995.66;;;12.62;71.40
7178;BME280;3630;42.146;24.756;2022-11-15T09:28:41;99985.50;;;12.71;71.31
7178;BME280;3630;42.146;24.756;2022-11-15T09:31:08;99990.72;;;12.77;71.18
7178;BME280;3630;42.146;24.756;2022-11-15T09:33:35;99984.56;;;12.68;72.05
7178;BME280;3630;42.146;24.756;2022-11-15T09:36:04;99979.16;;;12.53;73.72
7178;BME280;3630;42.146;24.756;2022-11-15T09:38:31;99978.28;;;12.49;74.08
7178;BME280;3630;42.146;24.756;2022-11-15T09:41:17;99961.78;;;12.39;74.59
7178;BME280;3630;42.146;24.756;2022-11-15T09:43:58;99971.47;;;12.56;74.50
7178;BME280;3630;42.146;24.756;2022-11-15T09:46:37;99962.25;;;12.70;75.25
7178;BME280;3630;42.146;24.756;2022-11-15T09:49:11;99960.56;;;12.70;74.40
7178;BME280;3630;42.146;24.756;2022-11-15T09:51:41;99957.97;;;12.72;74.79
7178;BME280;3630;42.146;24.756;2022-11-15T09:54:20;99955.56;;;12.81;74.14
7178;BME280;3630;42.146;24.756;2022-11-15T09:56:48;99951.31;;;12.84;73.61
7178;BME280;3630;42.146;24.756;2022-11-15T09:59:47;99948.09;;;12.99;72.75
7178;BME280;3630;42.146;24.756;2022-11-15T10:02:29;99922.25;;;12.96;71.47
7178;BME280;3630;42.146;24.756;2022-11-15T10:05:00;99937.94;;;13.10;71.08
7178;BME280;3630;42.146;24.756;2022-11-15T10:07:33;99931.13;;;13.16;70.44
7178;BME280;3630;42.146;24.756;2022-11-15T10:10:09;99921.69;;;13.15;70.14
7178;BME280;3630;42.146;24.756;2022-11-15T10:12:39;99931.16;;;13.19;70.09
7178;BME280;3630;42.146;24.756;2022-11-15T10:15:13;99922.59;;;13.20;70.07
7178;BME280;3630;42.146;24.756;2022-11-15T10:17:55;99913.19;;;13.25;70.10
7178;BME280;3630;42.146;24.756;2022-11-15T10:20:27;99918.34;;;13.25;68.64
7178;BME280;3630;42.146;24.756;2022-11-15T10:22:56;99909.50;;;13.07;69.04
7178;BME280;3630;42.146;24.756;2022-11-15T10:25:26;99897.25;;;12.92;69.20
7178;BME280;3630;42.146;24.756;2022-11-15T10:27:56;99917.19;;;13.03;69.20
7178;BME280;3630;42.146;24.756;2022-11-15T10:30:31;99906.81;;;13.00;69.50
7178;BME280;3630;42.146;24.756;2022-11-15T10:33:08;99905.28;;;13.13;69.36
7178;BME280;3630;42.146;24.756;2022-11-15T10:35:36;99905.31;;;13.15;68.53
7178;BME280;3630;42.146;24.756;2022-11-15T10:38:08;99908.66;;;13.08;68.20
7178;BME280;3630;42.146;24.756;2022-11-15T10:40:36;99906.19;;;13.15;68.57
7178;BME280;3630;42.146;24.756;2022-11-15T10:43:14;99857.69;;;12.91;69.02
7178;BME280;3630;42.146;24.756;2022-11-15T10:45:43;99887.22;;;13.10;68.43
7178;BME280;3630;42.146;24.756;2022-11-15T10:48:22;99883.84;;;13.16;69.13
7178;BME280;3630;42.146;24.756;2022-11-15T10:50:50;99878.69;;;13.16;68.52
7178;BME280;3630;42.146;24.756;2022-11-15T10:53:23;99878.09;;;13.39;68.26
7178;BME280;3630;42.146;24.756;2022-11-15T10:55:52;99866.09;;;13.43;68.07
7178;BME280;3630;42.146;24.756;2022-11-15T10:58:22;99859.34;;;13.57;67.39
7178;BME280;3630;42.146;24.756;2022-11-15T11:00:55;99860.41;;;13.77;66.81
7178;BME280;3630;42.146;24.756;2022-11-15T11:03:35;99862.88;;;13.67;66.08
7178;BME280;3630;42.146;24.756;2022-11-15T11:06:06;99855.97;;;13.64;66.02
7178;BME280;3630;42.146;24.756;2022-11-15T11:08:33;99851.66;;;13.62;66.24
7178;BME280;3630;42.146;24.756;2022-11-15T11:11:02;99848.28;;;13.72;66.53
7178;BME280;3630;42.146;24.756;2022-11-15T11:13:31;99845.91;;;13.90;65.82
7178;BME280;3630;42.146;24.756;2022-11-15T11:16:10;99848.56;;;14.00;66.07
7178;BME280;3630;42.146;24.756;2022-11-15T11:18:48;99832.28;;;14.13;65.36
7178;BME280;3630;42.146;24.756;2022-11-15T11:21:19;99836.63;;;14.19;65.13
7178;BME280;3630;42.146;24.756;2022-11-15T11:23:53;99826.28;;;14.16;64.78
7178;BME280;3630;42.146;24.756;2022-11-15T11:26:40;99825.38;;;14.11;63.69
7178;BME280;3630;42.146;24.756;2022-11-15T11:29:19;99824.50;;;14.06;64.35
7178;BME280;3630;42.146;24.756;2022-11-15T11:31:56;99806.41;;;14.07;64.50
7178;BME280;3630;42.146;24.756;2022-11-15T11:34:36;99811.59;;;14.12;64.58
7178;BME280;3630;42.146;24.756;2022-11-15T11:37:12;99803.94;;;14.24;64.61
7178;BME280;3630;42.146;24.756;2022-11-15T11:39:47;99797.03;;;14.20;63.76
7178;BME280;3630;42.146;24.756;2022-11-15T11:42:29;99792.72;;;14.22;64.09
7178;BME280;3630;42.146;24.756;2022-11-15T11:45:14;99791.84;;;14.22;64.67
7178;BME280;3630;42.146;24.756;2022-11-15T11:47:47;99790.22;;;14.34;64.49
7178;BME280;3630;42.146;24.756;2022-11-15T11:50:18;99789.44;;;14.46;64.58
7178;BME280;3630;42.146;24.756;2022-11-15T11:52:55;99788.53;;;14.35;63.12
7178;BME280;3630;42.146;24.756;2022-11-15T11:55:26;99783.19;;;14.13;64.17
7178;BME280;3630;42.146;24.756;2022-11-15T11:58:02;99758.97;;;13.95;64.92
7178;BME280;3630;42.146;24.756;2022-11-15T12:00:31;99778.03;;;14.15;65.01
7178;BME280;3630;42.146;24.756;2022-11-15T12:03:09;99774.59;;;14.17;64.24
7178;BME280;3630;42.146;24.756;2022-11-15T12:05:40;99764.28;;;14.19;64.30
7178;BME280;3630;42.146;24.756;2022-11-15T12:08:27;99771.22;;;14.29;64.85
7178;BME280;3630;42.146;24.756;2022-11-15T12:11:00;99760.00;;;14.29;64.99
7178;BME280;3630;42.146;24.756;2022-11-15T12:13:30;99758.31;;;14.31;65.40
7178;BME280;3630;42.146;24.756;2022-11-15T12:16:07;99737.59;;;14.25;64.91
7178;BME280;3630;42.146;24.756;2022-11-15T12:18:37;99754.78;;;14.18;64.63
7178;BME280;3630;42.146;24.756;2022-11-15T12:21:07;99750.28;;;13.84;65.50
7178;BME280;3630;42.146;24.756;2022-11-15T12:23:39;99748.53;;;13.81;65.99
7178;BME280;3630;42.146;24.756;2022-11-15T12:26:10;99740.81;;;13.86;66.19
7178;BME280;3630;42.146;24.756;2022-11-15T12:28:39;99734.75;;;13.82;66.59
7178;BME280;3630;42.146;24.756;2022-11-15T12:31:14;99725.25;;;13.75;66.22
7178;BME280;3630;42.146;24.756;2022-11-15T12:33:46;99733.06;;;13.86;66.44
7178;BME280;3630;42.146;24.756;2022-11-15T12:36:32;99734.03;;;14.04;67.02
7178;BME280;3630;42.146;24.756;2022-11-15T12:39:02;99724.66;;;14.17;66.67
7178;BME280;3630;42.146;24.756;2022-11-15T12:41:31;99728.16;;;14.28;64.95
7178;BME280;3630;42.146;24.756;2022-11-15T12:43:59;99719.50;;;14.22;64.80
7178;BME280;3630;42.146;24.756;2022-11-15T12:47:02;99715.16;;;14.17;65.46
7178;BME280;3630;42.146;24.756;2022-11-15T12:49:44;99717.75;;;14.19;65.61
7178;BME280;3630;42.146;24.756;2022-11-15T12:52:11;99714.34;;;14.26;64.97
7178;BME280;3630;42.146;24.756;2022-11-15T12:55:02;99681.50;;;14.04;64.45
7178;BME280;3630;42.146;24.756;2022-11-15T12:57:36;99704.78;;;14.10;64.95
7178;BME280;3630;42.146;24.756;2022-11-15T13:03:27;99701.41;;;14.23;65.80
7178;BME280;3630;42.146;24.756;2022-11-15T13:06:33;99694.56;;;14.30;65.30
7178;BME280;3630;42.146;24.756;2022-11-15T13:09:03;99696.28;;;14.28;65.62
7178;BME280;3630;42.146;24.756;2022-11-15T13:11:50;99683.31;;;14.20;65.24
7178;BME280;3630;42.146;24.756;2022-11-15T13:38:04;99678.13;;;14.23;66.52
7178;BME280;3630;42.146;24.756;2022-11-15T13:40:36;99681.59;;;14.22;66.47
7178;BME280;3630;42.146;24.756;2022-11-15T13:43:23;99667.78;;;14.14;66.51
7178;BME280;3630;42.146;24.756;2022-11-15T13:46:07;99633.19;;;13.88;67.15
7178;BME280;3630;42.146;24.756;2022-11-15T13:48:34;99675.47;;;14.06;68.08
7178;BME280;3630;42.146;24.756;2022-11-15T13:51:02;99671.16;;;13.99;68.44
7178;BME280;3630;42.146;24.756;2022-11-15T13:53:32;99671.19;;;14.07;68.49
7178;BME280;3630;42.146;24.756;2022-11-15T13:56:00;99666.03;;;14.13;68.67
7178;BME280;3630;42.146;24.756;2022-11-15T13:58:29;99673.75;;;14.07;68.43